sensor_id;sensor_type;location;lat;lon;timestamp;P1;durP1;ratioP1;P2;durP2;ratioP2
54845;SDS011;53889;50.084;8.646;2022-12-05T00:00:24;25.75;;;14.45;;
54845;SDS011;53889;50.084;8.646;2022-12-05T00:03:07;27.45;;;15.63;;
54845;SDS011;53889;50.084;8.646;2022-12-05T00:05:37;30.30;;;16.17;;
54845;SDS011;53889;50.084;8.646;2022-12-05T00:08:30;32.05;;;17.30;;
54845;SDS011;53889;50.084;8.646;2022-12-05T00:11:00;29.52;;;16.42;;
54845;SDS011;53889;50.084;8.646;2022-12-05T00:13:30;30.60;;;17.38;;
54845;SDS011;53889;50.084;8.646;2022-12-05T00:16:07;29.52;;;16.23;;
54845;SDS011;53889;50.084;8.646;2022-12-05T00:18:40;28.85;;;16.30;;
54845;SDS011;53889;50.084;8.646;2022-12-05T00:21:25;28.80;;;16.15;;
54845;SDS011;53889;50.084;8.646;2022-12-05T00:30:33;28.08;;;15.07;;
54845;SDS011;53889;50.084;8.646;2022-12-05T00:33:11;29.75;;;15.90;;
54845;SDS011;53889;50.084;8.646;2022-12-05T00:36:10;26.77;;;15.25;;
54845;SDS011;53889;50.084;8.646;2022-12-05T00:38:50;29.38;;;16.63;;
54845;SDS011;53889;50.084;8.646;2022-12-05T00:41:32;30.83;;;16.80;;
54845;SDS011;53889;50.084;8.646;2022-12-05T00:44:21;27.02;;;15.65;;
54845;SDS011;53889;50.084;8.646;2022-12-05T00:47:16;29.33;;;15.73;;
54845;SDS011;53889;50.084;8.646;2022-12-05T00:50:00;30.50;;;16.52;;
54845;SDS011;53889;50.084;8.646;2022-12-05T00:52:28;25.73;;;14.73;;
54845;SDS011;53889;50.084;8.646;2022-12-05T00:55:00;27.02;;;15.52;;
54845;SDS011;53889;50.084;8.646;2022-12-05T00:57:49;26.83;;;15.43;;
54845;SDS011;53889;50.084;8.646;2022-12-05T01:03:24;26.17;;;14.70;;
54845;SDS011;53889;50.084;8.646;2022-12-05T02:04:32;30.20;;;15.40;;
54845;SDS011;53889;50.084;8.646;2022-12-05T02:07:44;28.45;;;16.10;;
54845;SDS011;53889;50.084;8.646;2022-12-05T02:29:01;31.05;;;16.35;;
54845;SDS011;53889;50.084;8.646;2022-12-05T02:31:49;33.92;;;17.20;;
54845;SDS011;53889;50.084;8.646;2022-12-05T02:34:25;33.58;;;17.55;;
54845;SDS011;53889;50.084;8.646;2022-12-05T02:36:59;31.63;;;17.23;;
54845;SDS011;53889;50.084;8.646;2022-12-05T02:39:34;34.50;;;18.27;;
54845;SDS011;53889;50.084;8.646;2022-12-05T02:42:12;31.42;;;16.42;;
54845;SDS011;53889;50.084;8.646;2022-12-05T02:44:45;29.75;;;15.73;;
54845;SDS011;53889;50.084;8.646;2022-12-05T02:47:17;36.28;;;18.42;;
54845;SDS011;53889;50.084;8.646;2022-12-05T02:50:27;32.58;;;17.55;;
54845;SDS011;53889;50.084;8.646;2022-12-05T03:04:47;32.58;;;17.45;;
54845;SDS011;53889;50.084;8.646;2022-12-05T03:12:21;32.33;;;17.58;;
54845;SDS011;53889;50.084;8.646;2022-12-05T03:22:40;29.38;;;15.95;;
54845;SDS011;53889;50.084;8.646;2022-12-05T04:26:47;46.42;;;21.05;;
54845;SDS011;53889;50.084;8.646;2022-12-05T04:29:31;35.22;;;16.75;;
54845;SDS011;53889;50.084;8.646;2022-12-05T04:32:37;34.05;;;17.40;;
54845;SDS011;53889;50.084;8.646;2022-12-05T04:35:10;39.92;;;17.63;;
54845;SDS011;53889;50.084;8.646;2022-12-05T07:06:12;45.05;;;20.05;;
54845;SDS011;53889;50.084;8.646;2022-12-05T07:08:47;42.50;;;18.55;;
54845;SDS011;53889;50.084;8.646;2022-12-05T07:12:31;49.28;;;19.77;;
54845;SDS011;53889;50.084;8.646;2022-12-05T07:15:27;44.58;;;20.42;;
54845;SDS011;53889;50.084;8.646;2022-12-05T07:18:14;49.15;;;21.10;;
54845;SDS011;53889;50.084;8.646;2022-12-05T07:21:05;41.47;;;19.85;;
54845;SDS011;53889;50.084;8.646;2022-12-05T07:31:08;49.80;;;20.50;;
54845;SDS011;53889;50.084;8.646;2022-12-05T07:33:43;41.55;;;19.02;;
54845;SDS011;53889;50.084;8.646;2022-12-05T07:36:18;46.60;;;20.45;;
54845;SDS011;53889;50.084;8.646;2022-12-05T07:39:01;41.97;;;18.02;;
54845;SDS011;53889;50.084;8.646;2022-12-05T07:41:30;39.95;;;18.15;;
54845;SDS011;53889;50.084;8.646;2022-12-05T07:44:17;46.25;;;20.35;;
54845;SDS011;53889;50.084;8.646;2022-12-05T07:47:26;44.85;;;20.38;;
54845;SDS011;53889;50.084;8.646;2022-12-05T07:50:07;37.28;;;17.05;;
54845;SDS011;53889;50.084;8.646;2022-12-05T07:53:16;45.80;;;21.23;;
54845;SDS011;53889;50.084;8.646;2022-12-05T07:56:07;42.30;;;18.50;;
54845;SDS011;53889;50.084;8.646;2022-12-05T07:58:54;46.08;;;19.33;;
54845;SDS011;53889;50.084;8.646;2022-12-05T08:05:11;44.58;;;19.08;;
54845;SDS011;53889;50.084;8.646;2022-12-05T08:08:06;39.45;;;17.17;;
54845;SDS011;53889;50.084;8.646;2022-12-05T08:11:06;43.40;;;18.13;;
54845;SDS011;53889;50.084;8.646;2022-12-05T08:13:43;51.80;;;19.98;;
54845;SDS011;53889;50.084;8.646;2022-12-05T08:17:13;44.45;;;19.83;;
54845;SDS011;53889;50.084;8.646;2022-12-05T08:20:22;40.45;;;17.80;;
54845;SDS011;53889;50.084;8.646;2022-12-05T08:23:29;42.03;;;18.20;;
54845;SDS011;53889;50.084;8.646;2022-12-05T08:26:37;41.92;;;18.50;;
54845;SDS011;53889;50.084;8.646;2022-12-05T08:29:53;44.10;;;19.45;;
54845;SDS011;53889;50.084;8.646;2022-12-05T08:32:41;42.30;;;18.25;;
54845;SDS011;53889;50.084;8.646;2022-12-05T08:36:27;38.80;;;18.40;;
54845;SDS011;53889;50.084;8.646;2022-12-05T08:39:03;39.17;;;18.17;;
54845;SDS011;53889;50.084;8.646;2022-12-05T08:42:11;41.47;;;18.38;;
54845;SDS011;53889;50.084;8.646;2022-12-05T08:45:09;47.22;;;23.15;;
54845;SDS011;53889;50.084;8.646;2022-12-05T08:48:18;45.40;;;20.13;;
54845;SDS011;53889;50.084;8.646;2022-12-05T08:51:07;44.35;;;20.98;;
54845;SDS011;53889;50.084;8.646;2022-12-05T08:54:28;52.63;;;21.55;;
54845;SDS011;53889;50.084;8.646;2022-12-05T08:57:26;50.88;;;21.23;;
54845;SDS011;53889;50.084;8.646;2022-12-05T09:00:04;54.38;;;21.92;;
54845;SDS011;53889;50.084;8.646;2022-12-05T09:03:29;55.50;;;22.15;;
54845;SDS011;53889;50.084;8.646;2022-12-05T09:06:40;46.20;;;20.30;;
54845;SDS011;53889;50.084;8.646;2022-12-05T09:09:24;51.28;;;21.20;;
54845;SDS011;53889;50.084;8.646;2022-12-05T09:12:45;57.60;;;21.65;;
54845;SDS011;53889;50.084;8.646;2022-12-05T09:18:12;55.65;;;21.88;;
54845;SDS011;53889;50.084;8.646;2022-12-05T09:20:57;51.72;;;20.60;;
54845;SDS011;53889;50.084;8.646;2022-12-05T09:24:29;54.40;;;21.27;;
54845;SDS011;53889;50.084;8.646;2022-12-05T09:27:32;56.75;;;23.00;;
54845;SDS011;53889;50.084;8.646;2022-12-05T09:30:27;53.50;;;20.50;;
54845;SDS011;53889;50.084;8.646;2022-12-05T09:33:25;54.80;;;21.98;;
54845;SDS011;53889;50.084;8.646;2022-12-05T09:36:37;50.13;;;21.70;;
54845;SDS011;53889;50.084;8.646;2022-12-05T09:39:25;47.53;;;20.52;;
54845;SDS011;53889;50.084;8.646;2022-12-05T09:42:02;50.08;;;21.27;;
54845;SDS011;53889;50.084;8.646;2022-12-05T09:45:21;42.60;;;19.23;;
54845;SDS011;53889;50.084;8.646;2022-12-05T09:49:09;56.78;;;24.58;;
54845;SDS011;53889;50.084;8.646;2022-12-05T09:59:42;46.10;;;18.98;;
54845;SDS011;53889;50.084;8.646;2022-12-05T10:02:18;43.63;;;18.95;;
54845;SDS011;53889;50.084;8.646;2022-12-05T10:05:42;50.15;;;20.33;;
54845;SDS011;53889;50.084;8.646;2022-12-05T10:09:23;41.55;;;18.67;;
54845;SDS011;53889;50.084;8.646;2022-12-05T10:19:33;39.20;;;18.13;;
54845;SDS011;53889;50.084;8.646;2022-12-05T10:23:10;37.88;;;17.05;;
54845;SDS011;53889;50.084;8.646;2022-12-05T10:30:12;39.45;;;18.52;;
54845;SDS011;53889;50.084;8.646;2022-12-05T10:44:21;35.65;;;16.98;;
54845;SDS011;53889;50.084;8.646;2022-12-05T11:01:17;30.73;;;15.20;;
54845;SDS011;53889;50.084;8.646;2022-12-05T11:11:33;32.70;;;16.58;;
54845;SDS011;53889;50.084;8.646;2022-12-05T11:15:18;30.27;;;14.60;;
54845;SDS011;53889;50.084;8.646;2022-12-05T11:18:24;30.93;;;16.30;;
54845;SDS011;53889;50.084;8.646;2022-12-05T11:21:40;26.52;;;13.15;;
54845;SDS011;53889;50.084;8.646;2022-12-05T11:32:16;24.58;;;11.80;;
54845;SDS011;53889;50.084;8.646;2022-12-05T20:53:52;12.63;;;6.68;;
54845;SDS011;53889;50.084;8.646;2022-12-05T21:59:48;9.82;;;5.85;;
54845;SDS011;53889;50.084;8.646;2022-12-05T22:07:29;8.63;;;5.80;;
